createdAt,value
2017-10-30T00:00:05.518Z,9.96
2017-10-30T00:01:05.424Z,10.09
2017-10-30T00:02:05.336Z,10.03
2017-10-30T00:03:05.247Z,10.22
2017-10-30T00:04:05.168Z,10.19
2017-10-30T00:05:05.101Z,10.21
2017-10-30T00:06:04.995Z,9.99
2017-10-30T00:07:04.909Z,10.17
2017-10-30T00:08:04.825Z,10.24
2017-10-30T00:09:04.745Z,10.26
2017-10-30T00:10:04.682Z,10.15
2017-10-30T00:11:04.564Z,10.14
2017-10-30T00:12:04.489Z,10.24
2017-10-30T00:13:04.426Z,10.19
2017-10-30T00:14:04.312Z,10.28
2017-10-30T00:15:04.232Z,10.12
2017-10-30T00:16:04.135Z,10.10
2017-10-30T00:17:04.061Z,10.28
2017-10-30T00:18:03.969Z,10.25
2017-10-30T00:19:03.892Z,10.14
2017-10-30T00:20:03.799Z,10.14
2017-10-30T00:21:03.718Z,10.17
2017-10-30T00:22:03.635Z,10.15
2017-10-30T00:23:03.550Z,10.19
2017-10-30T00:24:03.461Z,10.25
2017-10-30T00:25:03.375Z,10.21
2017-10-30T00:26:03.285Z,10.21
2017-10-30T00:27:03.207Z,10.28
2017-10-30T00:28:03.122Z,10.18
2017-10-30T00:29:03.035Z,10.34
2017-10-30T00:30:02.952Z,10.22
2017-10-30T00:31:02.859Z,10.26
2017-10-30T00:32:02.779Z,10.15
2017-10-30T00:33:02.693Z,10.22
2017-10-30T00:34:02.605Z,10.21
2017-10-30T00:35:02.519Z,10.14
2017-10-30T00:36:02.441Z,10.17
2017-10-30T00:37:02.374Z,10.21
2017-10-30T00:38:02.267Z,10.26
2017-10-30T00:39:02.181Z,10.19
2017-10-30T00:40:02.101Z,10.14
2017-10-30T00:41:02.015Z,10.03
2017-10-30T00:42:01.920Z,10.14
2017-10-30T00:43:01.837Z,10.21
2017-10-30T00:44:01.752Z,10.22
2017-10-30T00:45:01.674Z,10.21
2017-10-30T00:46:01.578Z,10.14
2017-10-30T00:47:01.498Z,10.14
2017-10-30T00:48:01.421Z,10.10
2017-10-30T00:49:01.333Z,10.10
2017-10-30T00:50:01.248Z,10.09
2017-10-30T00:51:01.156Z,10.09
2017-10-30T00:52:01.074Z,10.12
2017-10-30T00:53:00.988Z,10.21
2017-10-30T00:54:00.897Z,9.97
2017-10-30T00:55:00.811Z,10.19
2017-10-30T00:56:00.729Z,10.19
2017-10-30T00:57:00.664Z,10.22
2017-10-30T00:58:00.562Z,10.24
2017-10-30T00:59:00.480Z,10.24
2017-10-30T01:00:00.383Z,10.17
2017-10-30T01:01:00.301Z,10.10
2017-10-30T01:02:00.222Z,10.19
2017-10-30T01:03:00.131Z,10.00
2017-10-30T01:04:00.051Z,10.14
2017-10-30T01:04:59.969Z,10.14
2017-10-30T01:05:59.882Z,10.06
2017-10-30T01:06:59.790Z,10.17
2017-10-30T01:07:59.706Z,10.17
2017-10-30T01:08:59.618Z,10.14
2017-10-30T01:09:59.532Z,10.00
2017-10-30T01:10:59.452Z,10.17
2017-10-30T01:11:59.368Z,10.15
2017-10-30T01:12:59.279Z,10.09
2017-10-30T01:13:59.189Z,10.09
2017-10-30T01:14:59.102Z,10.15
2017-10-30T01:15:59.027Z,10.04
2017-10-30T01:16:58.943Z,10.04
2017-10-30T01:17:58.857Z,9.99
2017-10-30T01:18:58.763Z,10.01
2017-10-30T01:19:58.676Z,9.94
2017-10-30T01:20:58.614Z,9.96
2017-10-30T01:21:58.510Z,9.89
2017-10-30T01:22:58.426Z,9.97
2017-10-30T01:23:58.334Z,10.03
2017-10-30T01:24:58.252Z,10.03
2017-10-30T01:25:58.166Z,10.00
2017-10-30T01:26:58.103Z,9.94
2017-10-30T01:27:58.002Z,9.82
2017-10-30T01:28:57.908Z,9.89
2017-10-30T01:29:57.832Z,9.91
2017-10-30T01:30:57.737Z,9.89
2017-10-30T01:31:57.670Z,9.86
2017-10-30T01:32:57.581Z,9.88
2017-10-30T01:33:57.497Z,9.93
2017-10-30T01:34:57.399Z,9.86
2017-10-30T01:35:57.317Z,9.91
2017-10-30T01:36:57.230Z,9.86
2017-10-30T01:37:57.142Z,9.76
2017-10-30T01:38:57.053Z,9.75
2017-10-30T01:39:56.962Z,9.78
2017-10-30T01:40:56.893Z,9.75
2017-10-30T01:41:56.808Z,9.83
2017-10-30T01:42:56.717Z,9.83
2017-10-30T01:43:56.633Z,9.66
2017-10-30T01:44:56.545Z,9.71
2017-10-30T01:45:56.455Z,9.75
2017-10-30T01:46:56.373Z,9.63
2017-10-30T01:47:56.298Z,9.68
2017-10-30T01:48:56.209Z,9.76
2017-10-30T01:49:56.104Z,9.78
2017-10-30T01:50:56.021Z,9.83
2017-10-30T01:51:55.966Z,9.79
2017-10-30T01:52:55.865Z,9.71
2017-10-30T01:53:55.768Z,9.61
2017-10-30T01:54:55.681Z,9.66
2017-10-30T01:55:55.595Z,9.68
2017-10-30T01:56:55.509Z,9.64
2017-10-30T01:57:55.425Z,9.61
2017-10-30T01:58:55.344Z,9.78
2017-10-30T01:59:55.262Z,9.68
2017-10-30T02:00:55.163Z,9.78
2017-10-30T02:01:55.108Z,9.66
2017-10-30T02:02:55.014Z,9.71
2017-10-30T02:03:54.910Z,9.73
2017-10-30T02:04:54.837Z,9.71
2017-10-30T02:05:54.736Z,9.75
2017-10-30T02:06:54.656Z,9.68
2017-10-30T02:07:54.567Z,9.66
2017-10-30T02:08:54.499Z,9.61
2017-10-30T02:09:54.391Z,9.67
2017-10-30T02:10:54.306Z,9.68
2017-10-30T02:11:54.224Z,9.71
2017-10-30T02:12:54.147Z,9.71
2017-10-30T02:13:54.088Z,9.61
2017-10-30T02:14:53.987Z,9.61
2017-10-30T02:15:53.913Z,9.76
2017-10-30T02:16:53.793Z,9.73
2017-10-30T02:17:53.708Z,9.70
2017-10-30T02:18:53.616Z,9.76
2017-10-30T02:19:53.532Z,9.61
2017-10-30T02:20:53.478Z,9.75
2017-10-30T02:21:53.388Z,9.71
2017-10-30T02:22:53.289Z,9.71
2017-10-30T02:23:53.205Z,9.68
2017-10-30T02:24:53.159Z,9.71
2017-10-30T02:25:53.018Z,9.70
2017-10-30T02:26:52.934Z,9.61
2017-10-30T02:27:52.848Z,9.57
2017-10-30T02:28:52.811Z,9.53
2017-10-30T02:29:52.676Z,9.52
2017-10-30T02:30:52.598Z,9.57
2017-10-30T02:31:52.510Z,9.60
2017-10-30T02:32:52.418Z,9.52
2017-10-30T02:33:52.341Z,9.40
2017-10-30T02:34:52.251Z,9.50
2017-10-30T02:35:52.176Z,9.50
2017-10-30T02:36:52.074Z,9.57
2017-10-30T02:37:52.011Z,9.58
2017-10-30T02:38:51.916Z,9.57
2017-10-30T02:39:51.820Z,9.61
2017-10-30T02:40:51.729Z,9.43
2017-10-30T02:41:51.656Z,9.48
2017-10-30T02:42:51.594Z,9.48
2017-10-30T02:43:51.494Z,9.53
2017-10-30T02:44:51.393Z,9.57
2017-10-30T02:45:51.300Z,9.50
2017-10-30T02:46:51.218Z,9.46
2017-10-30T02:47:51.132Z,9.53
2017-10-30T02:48:51.049Z,9.50
2017-10-30T02:49:50.966Z,9.42
2017-10-30T02:50:50.886Z,9.43
2017-10-30T02:51:50.794Z,9.43
2017-10-30T02:52:50.706Z,9.39
2017-10-30T02:53:50.628Z,9.34
2017-10-30T02:54:50.537Z,9.52
2017-10-30T02:55:50.441Z,9.49
2017-10-30T02:56:50.357Z,9.49
2017-10-30T02:57:50.269Z,9.53
2017-10-30T02:58:50.190Z,9.43
2017-10-30T02:59:50.110Z,9.24
2017-10-30T03:00:50.017Z,9.27
2017-10-30T03:01:49.929Z,9.32
2017-10-30T03:02:49.882Z,9.24
2017-10-30T03:03:49.756Z,9.32
2017-10-30T03:04:49.670Z,9.43
2017-10-30T03:05:49.602Z,9.48
2017-10-30T03:06:49.501Z,9.40
2017-10-30T03:07:49.407Z,9.58
2017-10-30T03:08:49.329Z,9.50
2017-10-30T03:09:49.238Z,9.42
2017-10-30T03:10:49.152Z,9.43
2017-10-30T03:11:49.075Z,9.43
2017-10-30T03:12:49.003Z,9.34
2017-10-30T03:13:48.917Z,9.40
2017-10-30T03:14:48.810Z,9.49
2017-10-30T03:15:48.733Z,9.42
2017-10-30T03:16:48.647Z,9.25
2017-10-30T03:17:48.553Z,9.25
2017-10-30T03:18:48.470Z,9.32
2017-10-30T03:19:48.383Z,9.46
2017-10-30T03:20:48.294Z,9.39
2017-10-30T03:21:48.209Z,9.43
2017-10-30T03:22:48.120Z,9.39
2017-10-30T03:23:48.049Z,9.39
2017-10-30T03:24:47.957Z,9.45
2017-10-30T03:25:47.866Z,9.52
2017-10-30T03:26:47.781Z,9.49
2017-10-30T03:27:47.698Z,9.43
2017-10-30T03:28:47.615Z,9.30
2017-10-30T03:29:47.530Z,9.38
2017-10-30T03:30:47.440Z,9.42
2017-10-30T03:31:47.349Z,9.35
2017-10-30T03:32:47.312Z,9.43
2017-10-30T03:33:47.181Z,9.35
2017-10-30T03:34:47.095Z,9.30
2017-10-30T03:35:47.010Z,9.43
2017-10-30T03:36:46.932Z,9.42
2017-10-30T03:37:46.841Z,9.46
2017-10-30T03:38:46.746Z,9.39
2017-10-30T03:39:46.664Z,9.31
2017-10-30T03:40:46.580Z,9.39
2017-10-30T03:41:46.496Z,9.31
2017-10-30T03:42:46.410Z,9.20
2017-10-30T03:43:46.337Z,9.12
2017-10-30T03:44:46.245Z,9.28
2017-10-30T03:45:46.150Z,9.25
2017-10-30T03:46:46.058Z,9.31
2017-10-30T03:47:45.976Z,9.18
2017-10-30T03:48:45.889Z,9.12
2017-10-30T03:49:45.806Z,9.06
2017-10-30T03:50:45.720Z,9.20
2017-10-30T03:51:45.629Z,9.28
2017-10-30T03:52:45.544Z,9.40
2017-10-30T03:53:45.471Z,9.27
2017-10-30T03:54:45.380Z,9.28
2017-10-30T03:55:45.288Z,9.09
2017-10-30T03:56:45.203Z,9.24
2017-10-30T03:57:45.143Z,9.10
2017-10-30T03:58:45.033Z,8.97
2017-10-30T03:59:44.945Z,8.93
2017-10-30T04:00:44.863Z,9.16
2017-10-30T04:01:44.776Z,9.21
2017-10-30T04:02:44.693Z,9.05
2017-10-30T04:03:44.605Z,9.16
2017-10-30T04:04:44.552Z,9.28
2017-10-30T04:05:44.441Z,9.05
2017-10-30T04:06:44.342Z,9.21
2017-10-30T04:07:44.251Z,9.27
2017-10-30T04:08:44.185Z,9.34
2017-10-30T04:09:44.086Z,9.27
2017-10-30T04:10:43.994Z,9.15
2017-10-30T04:11:43.912Z,9.20
2017-10-30T04:12:43.826Z,9.27
2017-10-30T04:13:43.750Z,9.09
2017-10-30T04:14:43.673Z,9.15
2017-10-30T04:15:43.571Z,9.18
2017-10-30T04:16:43.487Z,9.28
2017-10-30T04:17:43.398Z,9.24
2017-10-30T04:18:43.305Z,9.15
2017-10-30T04:19:43.231Z,9.10
2017-10-30T04:20:43.134Z,8.99
2017-10-30T04:21:43.053Z,9.05
2017-10-30T04:22:42.964Z,9.06
2017-10-30T04:23:42.879Z,8.97
2017-10-30T04:24:42.799Z,8.97
2017-10-30T04:25:42.703Z,8.97
2017-10-30T04:26:42.662Z,8.96
2017-10-30T04:27:42.537Z,9.05
2017-10-30T04:28:42.448Z,9.12
2017-10-30T04:29:42.373Z,8.90
2017-10-30T04:30:42.273Z,8.88
2017-10-30T04:31:42.189Z,8.97
2017-10-30T04:32:42.100Z,9.02
2017-10-30T04:33:42.016Z,9.12
2017-10-30T04:34:41.924Z,9.05
2017-10-30T04:35:41.850Z,9.13
2017-10-30T04:36:41.771Z,9.15
2017-10-30T04:37:41.680Z,9.06
2017-10-30T04:38:41.584Z,9.05
2017-10-30T04:39:41.498Z,8.97
2017-10-30T04:40:41.408Z,8.96
2017-10-30T04:41:41.331Z,9.05
2017-10-30T04:42:41.289Z,9.09
2017-10-30T04:43:41.151Z,9.09
2017-10-30T04:44:41.065Z,9.15
2017-10-30T04:45:40.983Z,9.02
2017-10-30T04:46:40.904Z,8.97
2017-10-30T04:47:40.817Z,8.93
2017-10-30T04:48:40.724Z,8.93
2017-10-30T04:49:40.639Z,8.87
2017-10-30T04:50:40.543Z,8.94
2017-10-30T04:51:40.474Z,9.01
2017-10-30T04:52:40.380Z,9.10
2017-10-30T04:53:40.295Z,8.96
2017-10-30T04:54:40.202Z,9.02
2017-10-30T04:55:40.113Z,8.93
2017-10-30T04:56:40.035Z,9.02
2017-10-30T04:57:39.946Z,9.09
2017-10-30T04:58:39.864Z,8.97
2017-10-30T04:59:39.775Z,8.81
2017-10-30T05:00:39.681Z,8.65
2017-10-30T05:01:39.601Z,8.76
2017-10-30T05:02:39.514Z,8.73
2017-10-30T05:03:39.421Z,8.78
2017-10-30T05:04:39.375Z,8.81
2017-10-30T05:05:39.266Z,8.81
2017-10-30T05:06:39.160Z,8.71
2017-10-30T05:07:39.080Z,8.63
2017-10-30T05:08:38.993Z,8.72
2017-10-30T05:09:38.930Z,8.73
2017-10-30T05:10:38.815Z,8.71
2017-10-30T05:11:38.744Z,8.73
2017-10-30T05:12:38.648Z,8.76
2017-10-30T05:13:38.556Z,8.78
2017-10-30T05:14:38.475Z,8.71
2017-10-30T05:15:38.423Z,8.81
2017-10-30T05:16:38.305Z,8.68
2017-10-30T05:17:38.223Z,8.69
2017-10-30T05:18:38.144Z,8.71
2017-10-30T05:19:38.043Z,8.78
2017-10-30T05:20:37.951Z,8.68
2017-10-30T05:21:37.867Z,8.42
2017-10-30T05:22:37.787Z,8.65
2017-10-30T05:23:37.722Z,8.50
2017-10-30T05:24:37.605Z,8.44
2017-10-30T05:25:37.517Z,8.55
2017-10-30T05:26:37.430Z,8.63
2017-10-30T05:27:37.347Z,8.60
2017-10-30T05:28:37.279Z,8.62
2017-10-30T05:29:37.182Z,8.48
2017-10-30T05:30:37.096Z,8.62
2017-10-30T05:31:36.999Z,8.58
2017-10-30T05:32:36.916Z,8.63
2017-10-30T05:33:36.833Z,8.65
2017-10-30T05:34:36.744Z,8.45
2017-10-30T05:35:36.650Z,8.48
2017-10-30T05:36:36.570Z,8.37
2017-10-30T05:37:36.474Z,8.58
2017-10-30T05:38:36.401Z,8.53
2017-10-30T05:39:36.303Z,8.55
2017-10-30T05:40:36.216Z,8.58
2017-10-30T05:41:36.140Z,8.48
2017-10-30T05:42:36.043Z,8.58
2017-10-30T05:43:35.953Z,8.57
2017-10-30T05:44:35.877Z,8.42
2017-10-30T05:45:35.784Z,8.55
2017-10-30T05:46:35.695Z,8.55
2017-10-30T05:47:35.606Z,8.58
2017-10-30T05:48:35.524Z,8.48
2017-10-30T05:49:35.441Z,8.53
2017-10-30T05:50:35.356Z,8.48
2017-10-30T05:51:35.276Z,8.45
2017-10-30T05:52:35.181Z,8.55
2017-10-30T05:53:35.106Z,8.62
2017-10-30T05:54:35.005Z,8.47
2017-10-30T05:55:34.910Z,8.54
2017-10-30T05:56:34.856Z,8.51
2017-10-30T05:57:34.741Z,8.54
2017-10-30T05:58:34.654Z,8.57
2017-10-30T05:59:34.570Z,8.53
2017-10-30T06:00:34.478Z,8.54
2017-10-30T06:01:34.394Z,8.55
2017-10-30T06:02:34.315Z,8.36
2017-10-30T06:03:34.227Z,8.53
2017-10-30T06:04:34.151Z,8.54
2017-10-30T06:05:34.068Z,8.51
2017-10-30T06:06:33.971Z,8.55
2017-10-30T06:07:33.875Z,8.62
2017-10-30T06:08:33.793Z,8.63
2017-10-30T06:09:33.701Z,8.54
2017-10-30T06:10:33.614Z,8.55
2017-10-30T06:11:33.532Z,8.53
2017-10-30T06:12:33.444Z,8.33
2017-10-30T06:13:33.358Z,8.40
2017-10-30T06:14:33.279Z,8.30
2017-10-30T06:15:33.197Z,8.35
2017-10-30T06:16:33.105Z,8.51
2017-10-30T06:17:33.012Z,8.39
2017-10-30T06:18:32.924Z,8.33
2017-10-30T06:19:32.848Z,8.44
2017-10-30T06:20:32.747Z,8.51
2017-10-30T06:21:32.662Z,8.35
2017-10-30T06:22:32.577Z,8.39
2017-10-30T06:23:32.484Z,8.48
2017-10-30T06:24:32.406Z,8.48
2017-10-30T06:25:32.308Z,8.45
2017-10-30T06:26:32.230Z,8.57
2017-10-30T06:27:32.153Z,8.53
2017-10-30T06:28:32.058Z,8.60
2017-10-30T06:29:31.961Z,8.42
2017-10-30T06:30:31.878Z,8.53
2017-10-30T06:31:31.802Z,8.47
2017-10-30T06:32:31.715Z,8.50
2017-10-30T06:33:31.622Z,8.60
2017-10-30T06:34:31.531Z,8.60
2017-10-30T06:35:31.487Z,8.65
2017-10-30T06:36:31.354Z,8.65
2017-10-30T06:37:31.273Z,8.66
2017-10-30T06:38:31.206Z,8.69
2017-10-30T06:39:31.104Z,8.68
2017-10-30T06:40:31.015Z,8.63
2017-10-30T06:41:30.927Z,8.58
2017-10-30T06:42:30.834Z,8.54
2017-10-30T06:43:30.751Z,8.58
2017-10-30T06:44:30.663Z,8.47
2017-10-30T06:45:30.572Z,8.50
2017-10-30T06:46:30.486Z,8.54
2017-10-30T06:47:30.432Z,8.48
2017-10-30T06:48:30.321Z,8.37
2017-10-30T06:49:30.247Z,8.48
2017-10-30T06:50:30.147Z,8.33
2017-10-30T06:51:30.057Z,8.48
2017-10-30T06:52:29.971Z,8.47
2017-10-30T06:53:29.883Z,8.51
2017-10-30T06:54:29.796Z,8.45
2017-10-30T06:55:29.718Z,8.35
2017-10-30T06:56:29.643Z,8.55
2017-10-30T06:57:29.539Z,8.20
2017-10-30T06:58:29.448Z,8.35
2017-10-30T06:59:29.399Z,8.50
2017-10-30T07:00:29.296Z,8.42
2017-10-30T07:01:29.206Z,8.40
2017-10-30T07:02:29.108Z,8.51
2017-10-30T07:03:29.023Z,8.48
2017-10-30T07:04:28.947Z,8.45
2017-10-30T07:05:28.846Z,8.36
2017-10-30T07:06:28.758Z,8.48
2017-10-30T07:07:28.675Z,8.48
2017-10-30T07:08:28.591Z,8.58
2017-10-30T07:09:28.507Z,8.62
2017-10-30T07:10:28.408Z,8.62
2017-10-30T07:11:28.332Z,8.47
2017-10-30T07:12:28.235Z,8.63
2017-10-30T07:13:28.153Z,8.55
2017-10-30T07:14:28.066Z,8.63
2017-10-30T07:15:27.978Z,8.66
2017-10-30T07:16:27.904Z,8.76
2017-10-30T07:17:27.805Z,8.75
2017-10-30T07:18:27.717Z,8.88
2017-10-30T07:19:27.629Z,8.90
2017-10-30T07:20:27.549Z,8.88
2017-10-30T07:21:27.473Z,9.01
2017-10-30T07:22:27.402Z,9.09
2017-10-30T07:23:27.293Z,9.27
2017-10-30T07:24:27.208Z,9.12
2017-10-30T07:25:27.120Z,9.25
2017-10-30T07:26:27.027Z,9.42
2017-10-30T07:27:26.948Z,9.58
2017-10-30T07:28:26.855Z,9.76
2017-10-30T07:29:26.792Z,9.78
2017-10-30T07:30:26.713Z,9.99
2017-10-30T07:31:26.602Z,10.17
2017-10-30T07:32:26.528Z,10.28
2017-10-30T07:33:26.444Z,10.47
2017-10-30T07:34:26.348Z,10.62
2017-10-30T07:35:26.270Z,10.92
2017-10-30T07:36:26.200Z,10.98
2017-10-30T07:37:26.117Z,10.86
2017-10-30T07:38:26.023Z,10.98
2017-10-30T07:39:25.943Z,11.24
2017-10-30T07:40:25.861Z,11.24
2017-10-30T07:41:25.781Z,11.38
2017-10-30T07:42:25.691Z,11.28
2017-10-30T07:43:25.610Z,11.57
2017-10-30T07:44:25.531Z,11.67
2017-10-30T07:45:25.456Z,11.64
2017-10-30T07:46:25.359Z,11.41
2017-10-30T07:47:25.285Z,11.03
2017-10-30T07:48:25.205Z,11.10
2017-10-30T07:49:25.121Z,10.91
2017-10-30T07:50:25.030Z,10.88
2017-10-30T07:51:24.955Z,10.99
2017-10-30T07:52:24.875Z,11.09
2017-10-30T07:53:24.787Z,11.35
2017-10-30T07:54:24.734Z,11.49
2017-10-30T07:55:24.634Z,11.67
2017-10-30T07:56:24.541Z,11.82
2017-10-30T07:57:24.483Z,12.16
2017-10-30T07:58:24.374Z,12.54
2017-10-30T07:59:24.291Z,12.44
2017-10-30T08:00:24.212Z,12.49
2017-10-30T08:01:24.131Z,12.67
2017-10-30T08:02:24.052Z,12.67
2017-10-30T08:03:23.995Z,12.82
2017-10-30T08:04:23.891Z,12.99
2017-10-30T08:05:23.812Z,13.12
2017-10-30T08:06:23.730Z,13.22
2017-10-30T08:07:23.648Z,13.03
2017-10-30T08:08:23.566Z,13.20
2017-10-30T08:09:23.516Z,13.00
2017-10-30T08:10:23.418Z,13.11
2017-10-30T08:11:23.336Z,13.33
2017-10-30T08:12:23.252Z,13.46
2017-10-30T08:13:23.164Z,13.47
2017-10-30T08:14:23.085Z,13.91
2017-10-30T08:15:23.002Z,13.95
2017-10-30T08:16:22.945Z,14.16
2017-10-30T08:17:22.852Z,14.06
2017-10-30T08:18:22.767Z,14.12
2017-10-30T08:19:22.684Z,14.06
2017-10-30T08:20:22.608Z,14.19
2017-10-30T08:21:22.540Z,14.29
2017-10-30T08:22:22.452Z,14.31
2017-10-30T08:23:22.372Z,14.37
2017-10-30T08:24:22.302Z,14.07
2017-10-30T08:25:22.210Z,14.35
2017-10-30T08:26:22.127Z,14.95
2017-10-30T08:27:22.054Z,14.94
2017-10-30T08:28:21.971Z,15.06
2017-10-30T08:29:21.896Z,14.75
2017-10-30T08:30:21.829Z,15.20
2017-10-30T08:31:21.743Z,15.35
2017-10-30T08:32:21.673Z,15.68
2017-10-30T08:33:21.584Z,15.78
2017-10-30T08:34:21.501Z,16.00
2017-10-30T08:35:21.435Z,15.97
2017-10-30T08:36:21.370Z,16.06
2017-10-30T08:37:21.280Z,16.04
2017-10-30T08:38:21.196Z,15.81
2017-10-30T08:39:21.121Z,16.06
2017-10-30T08:40:21.049Z,16.09
2017-10-30T08:41:20.969Z,15.81
2017-10-30T08:42:20.892Z,15.64
2017-10-30T08:43:20.813Z,16.26
2017-10-30T08:44:20.751Z,16.70
2017-10-30T08:45:20.664Z,16.95
2017-10-30T08:46:20.606Z,17.06
2017-10-30T08:47:20.517Z,16.92
2017-10-30T08:48:20.433Z,16.78
2017-10-30T08:49:20.377Z,17.08
2017-10-30T08:50:20.288Z,15.66
2017-10-30T08:51:20.224Z,16.31
2017-10-30T08:52:20.137Z,16.38
2017-10-30T08:53:20.062Z,15.89
2017-10-30T08:54:19.997Z,16.48
2017-10-30T08:55:19.912Z,16.90
2017-10-30T08:56:19.844Z,16.00
2017-10-30T08:57:19.754Z,16.96
2017-10-30T08:58:19.687Z,17.55
2017-10-30T08:59:19.605Z,17.81
2017-10-30T09:00:19.567Z,17.94
2017-10-30T09:01:19.460Z,17.71
2017-10-30T09:02:19.382Z,17.70
2017-10-30T09:03:19.304Z,17.43
2017-10-30T09:04:19.237Z,18.00
2017-10-30T09:05:19.161Z,18.31
2017-10-30T09:06:19.101Z,18.15
2017-10-30T09:07:19.017Z,18.09
2017-10-30T09:08:18.944Z,18.29
2017-10-30T09:09:18.873Z,18.68
2017-10-30T09:10:18.789Z,18.39
2017-10-30T09:11:18.721Z,18.22
2017-10-30T09:12:18.649Z,18.34
2017-10-30T09:13:18.570Z,18.64
2017-10-30T09:14:18.495Z,18.90
2017-10-30T09:15:18.449Z,18.80
2017-10-30T09:16:18.355Z,18.97
2017-10-30T09:17:18.285Z,18.59
2017-10-30T09:18:18.206Z,19.20
2017-10-30T09:19:18.145Z,19.23
2017-10-30T09:20:18.066Z,18.92
2017-10-30T09:21:17.990Z,19.39
2017-10-30T09:22:17.914Z,19.32
2017-10-30T09:23:17.843Z,19.61
2017-10-30T09:24:17.775Z,19.66
2017-10-30T09:25:17.700Z,19.38
2017-10-30T09:26:17.624Z,19.48
2017-10-30T09:27:17.549Z,18.34
2017-10-30T09:28:17.478Z,18.43
2017-10-30T09:29:17.417Z,19.20
2017-10-30T09:30:17.332Z,18.87
2017-10-30T09:31:17.262Z,18.37
2017-10-30T09:32:17.186Z,18.99
2017-10-30T09:33:17.118Z,19.17
2017-10-30T09:34:17.041Z,19.48
2017-10-30T09:35:16.967Z,18.72
2017-10-30T09:36:16.894Z,18.36
2017-10-30T09:37:16.820Z,18.59
2017-10-30T09:38:16.744Z,19.20
2017-10-30T09:39:16.674Z,19.84
2017-10-30T09:40:16.602Z,20.23
2017-10-30T09:41:16.529Z,20.00
2017-10-30T09:42:16.461Z,19.21
2017-10-30T09:43:16.381Z,20.15
2017-10-30T09:44:16.313Z,20.30
2017-10-30T09:45:16.279Z,20.71
2017-10-30T09:46:16.186Z,20.08
2017-10-30T09:47:16.097Z,19.63
2017-10-30T09:48:16.027Z,20.41
2017-10-30T09:49:15.960Z,20.74
2017-10-30T09:50:15.882Z,20.13
2017-10-30T09:51:15.812Z,20.50
2017-10-30T09:52:15.758Z,20.05
2017-10-30T09:53:15.672Z,20.46
2017-10-30T09:54:15.600Z,20.76
2017-10-30T09:55:15.526Z,20.39
2017-10-30T09:56:15.463Z,19.57
2017-10-30T09:57:15.392Z,20.39
2017-10-30T09:58:15.319Z,20.84
2017-10-30T09:59:15.257Z,20.59
2017-10-30T10:00:15.195Z,20.71
2017-10-30T10:01:15.104Z,20.03
2017-10-30T10:02:15.035Z,20.46
2017-10-30T10:03:14.975Z,20.86
2017-10-30T10:04:14.902Z,21.36
2017-10-30T10:05:14.860Z,21.20
2017-10-30T10:06:14.769Z,20.71
2017-10-30T10:07:14.690Z,20.35
2017-10-30T10:08:14.681Z,20.41
2017-10-30T10:09:14.548Z,20.38
2017-10-30T10:10:14.496Z,20.56
2017-10-30T10:11:14.408Z,20.54
2017-10-30T10:12:14.344Z,20.69
2017-10-30T10:13:14.271Z,20.79
2017-10-30T10:14:14.221Z,20.54
2017-10-30T10:15:14.132Z,20.47
2017-10-30T10:16:14.058Z,20.76
2017-10-30T10:17:13.999Z,21.01
2017-10-30T10:18:13.925Z,21.36
2017-10-30T10:19:13.858Z,21.32
2017-10-30T10:20:13.794Z,21.23
2017-10-30T10:21:13.716Z,20.72
2017-10-30T10:22:13.664Z,20.12
2017-10-30T10:23:13.575Z,20.28
2017-10-30T10:24:13.514Z,20.74
2017-10-30T10:25:13.430Z,20.76
2017-10-30T10:26:13.370Z,20.21
2017-10-30T10:27:13.306Z,20.30
2017-10-30T10:28:13.251Z,20.77
2017-10-30T10:29:13.154Z,21.17
2017-10-30T10:30:13.086Z,20.77
2017-10-30T10:31:13.013Z,20.47
2017-10-30T10:32:12.939Z,20.53
2017-10-30T10:33:12.868Z,20.23
2017-10-30T10:34:12.798Z,20.12
2017-10-30T10:35:12.739Z,20.03
2017-10-30T10:36:12.656Z,20.30
2017-10-30T10:37:12.580Z,20.42
2017-10-30T10:38:12.511Z,20.47
2017-10-30T10:39:12.442Z,20.21
2017-10-30T10:40:12.362Z,19.93
2017-10-30T10:41:12.291Z,19.43
2017-10-30T10:42:12.230Z,18.92
2017-10-30T10:43:12.140Z,19.25
2017-10-30T10:44:12.076Z,19.42
2017-10-30T10:45:12.000Z,19.05
2017-10-30T10:46:11.926Z,19.01
2017-10-30T10:47:11.852Z,18.67
2017-10-30T10:48:11.783Z,18.92
2017-10-30T10:49:11.702Z,18.91
2017-10-30T10:50:11.638Z,18.83
2017-10-30T10:51:11.558Z,18.80
2017-10-30T10:52:11.496Z,18.76
2017-10-30T10:53:11.403Z,18.52
2017-10-30T10:54:11.341Z,18.72
2017-10-30T10:55:11.244Z,18.40
2017-10-30T10:56:11.179Z,17.87
2017-10-30T10:57:11.102Z,17.78
2017-10-30T10:58:11.019Z,18.09
2017-10-30T10:59:10.945Z,18.22
2017-10-30T11:00:10.875Z,18.03
2017-10-30T11:01:10.791Z,18.15
2017-10-30T11:02:10.719Z,17.81
2017-10-30T11:03:10.634Z,17.79
2017-10-30T11:04:10.565Z,17.71
2017-10-30T11:05:10.484Z,17.70
2017-10-30T11:06:10.403Z,17.95
2017-10-30T11:07:10.334Z,18.57
2017-10-30T11:08:10.278Z,18.54
2017-10-30T11:09:10.198Z,18.44
2017-10-30T11:10:10.098Z,18.72
2017-10-30T11:11:10.031Z,18.90
2017-10-30T11:12:09.944Z,19.10
2017-10-30T11:13:09.894Z,18.87
2017-10-30T11:14:09.817Z,18.84
2017-10-30T11:15:09.741Z,18.70
2017-10-30T11:16:09.671Z,18.64
2017-10-30T11:17:09.578Z,18.61
2017-10-30T11:18:09.534Z,18.80
2017-10-30T11:19:09.427Z,18.61
2017-10-30T11:20:09.367Z,18.28
2017-10-30T11:21:09.276Z,18.00
2017-10-30T11:22:09.192Z,17.63
2017-10-30T11:23:09.125Z,17.82
2017-10-30T11:24:09.046Z,17.41
2017-10-30T11:25:08.967Z,17.63
2017-10-30T11:26:08.893Z,17.66
2017-10-30T11:27:08.808Z,17.78
2017-10-30T11:28:08.737Z,17.48
2017-10-30T11:29:08.675Z,17.26
2017-10-30T11:30:08.573Z,17.38
2017-10-30T11:31:08.545Z,17.51
2017-10-30T11:32:08.419Z,17.35
2017-10-30T11:33:08.351Z,17.40
2017-10-30T11:34:08.271Z,17.25
2017-10-30T11:35:08.177Z,17.38
2017-10-30T11:36:08.105Z,17.35
2017-10-30T11:37:08.037Z,17.11
2017-10-30T11:38:07.960Z,17.15
2017-10-30T11:39:07.862Z,17.15
2017-10-30T11:40:07.789Z,17.07
2017-10-30T11:41:07.706Z,17.13
2017-10-30T11:42:07.627Z,16.90
2017-10-30T11:43:07.568Z,16.95
2017-10-30T11:44:07.473Z,17.03
2017-10-30T11:45:07.390Z,16.95
2017-10-30T11:46:07.310Z,17.03
2017-10-30T11:47:07.235Z,16.99
2017-10-30T11:48:07.177Z,16.95
2017-10-30T11:49:07.065Z,16.93
2017-10-30T11:50:07.002Z,16.70
2017-10-30T11:51:06.920Z,16.73
2017-10-30T11:52:06.831Z,16.68
2017-10-30T11:53:06.753Z,16.58
2017-10-30T11:54:06.669Z,16.48
2017-10-30T11:55:06.596Z,16.50
2017-10-30T11:56:06.520Z,16.45
2017-10-30T11:57:06.431Z,16.44
2017-10-30T11:58:06.349Z,16.27
2017-10-30T11:59:06.302Z,16.25
2017-10-30T12:00:06.191Z,16.49
2017-10-30T12:01:06.117Z,16.83
2017-10-30T12:02:06.031Z,16.75
2017-10-30T12:03:05.953Z,17.00
2017-10-30T12:04:05.873Z,16.96
2017-10-30T12:05:05.789Z,16.99
2017-10-30T12:06:05.708Z,17.06
2017-10-30T12:07:05.622Z,16.95
2017-10-30T12:08:05.548Z,16.90
2017-10-30T12:09:05.466Z,16.83
2017-10-30T12:10:05.386Z,16.96
2017-10-30T12:11:05.307Z,16.93
2017-10-30T12:12:05.224Z,16.99
2017-10-30T12:13:05.142Z,17.10
2017-10-30T12:14:05.071Z,16.81
2017-10-30T12:15:04.981Z,16.86
2017-10-30T12:16:04.907Z,16.59
2017-10-30T12:17:04.851Z,16.81
2017-10-30T12:18:04.774Z,17.00
2017-10-30T12:19:04.664Z,16.98
2017-10-30T12:20:04.579Z,16.75
2017-10-30T12:21:04.505Z,16.49
2017-10-30T12:22:04.442Z,16.41
2017-10-30T12:23:04.339Z,16.07
2017-10-30T12:24:04.271Z,16.01
2017-10-30T12:25:04.187Z,16.11
2017-10-30T12:26:04.113Z,16.30
2017-10-30T12:27:04.017Z,16.14
2017-10-30T12:28:03.935Z,16.25
2017-10-30T12:29:03.855Z,16.25
2017-10-30T12:30:03.777Z,15.78
2017-10-30T12:31:03.696Z,15.81
2017-10-30T12:32:03.605Z,15.86
2017-10-30T12:33:03.546Z,15.86
2017-10-30T12:34:03.450Z,15.97
2017-10-30T12:35:03.373Z,15.99
2017-10-30T12:36:03.292Z,15.84
2017-10-30T12:37:03.236Z,15.97
2017-10-30T12:38:03.136Z,16.04
2017-10-30T12:39:03.067Z,16.11
2017-10-30T12:40:02.963Z,16.09
2017-10-30T12:41:02.889Z,16.01
2017-10-30T12:42:02.804Z,16.07
2017-10-30T12:43:02.720Z,16.11
2017-10-30T12:44:02.641Z,16.00
2017-10-30T12:45:02.572Z,16.01
2017-10-30T12:46:02.490Z,15.60
2017-10-30T12:47:02.401Z,15.72
2017-10-30T12:48:02.313Z,15.81
2017-10-30T12:49:02.232Z,15.78
2017-10-30T12:50:02.154Z,15.82
2017-10-30T12:51:02.083Z,15.89
2017-10-30T12:52:01.985Z,16.03
2017-10-30T12:53:01.918Z,15.97
2017-10-30T12:54:01.831Z,15.79
2017-10-30T12:55:01.742Z,15.75
2017-10-30T12:56:01.666Z,15.78
2017-10-30T12:57:01.585Z,15.60
2017-10-30T12:58:01.502Z,15.75
2017-10-30T12:59:01.423Z,15.54
2017-10-30T13:00:01.351Z,15.64
2017-10-30T13:01:01.258Z,15.48
2017-10-30T13:02:01.192Z,15.27
2017-10-30T13:03:01.096Z,15.24